首页
METAR-TAF:

METAR-TAF

机场 :

Northwest Florida Regional Airport / Eglin Air Force Base

瓦尔帕莱索, 佛罗里达州, 美国

纬度: 30-29N, 经度: 086-31W, 海拔: 26米

当前天气观测

该预报发布于1小时和8分钟前的04:56 UTC
风速3节,风向西南
温度 27°C
湿度 74%
气压 1019 hPa
能見度: 16.1公里
天空无云

METAR: KVPS 270456Z 22003KT 10SM CLR 27/22 A3008 RMK AO2A SLP217 SLP/ALSTG ESTMD T02650215 $

时间: 01:04 (06:04 UTC)

预报

该预报发布于5小时和4分钟前的01:00 UTC
预报有效从27日的 01点(UTC)到 28日的 07点(UTC)
风速5节,风向北转东北
能見度: 2704
少量云层高于5000英尺
短暂存在
从 27日的 09点(UTC)到 27日的 12点(UTC)
能見度: 3200
轻雾
成为
从 27日的 14点(UTC)到 27日的 15点(UTC)
风速9节,风向
能见度10公里或以上
少量云层高于4500英尺

TAF: KVPS 270100Z 2701/2807 19009KT 9999 FEW050 QNH3003INS WND 03005KT AFT 2704 TEMPO 2709/2712 3200 BR BECMG 2714/2715 19009KT 9999 FEW045 QNH3005INS TX34/2719Z TN23/2711Z

超过4000个机场的气象观测和天气预报(METAR&TAF报告)。

可查询的气象台以黄色和红色小点在地图上表示。

将鼠标移到小点上方,可查看气象台名称。

然后点击查看天气观测和预报。

如需切换地图:点击带黑十字的绿色按钮放大地图;点击带横线的绿色按钮缩小地图;或者点击绿色箭头查看邻近地区的地图。


METAR-TAF: